createdAt,value
2018-09-09T00:00:34.277Z,0.00
2018-09-09T00:01:34.267Z,0.00
2018-09-09T00:02:34.250Z,0.00
2018-09-09T00:03:34.252Z,0.00
2018-09-09T00:04:34.220Z,0.00
2018-09-09T00:05:34.203Z,0.00
2018-09-09T00:06:34.187Z,0.00
2018-09-09T00:07:34.171Z,0.00
2018-09-09T00:08:34.155Z,0.00
2018-09-09T00:09:34.154Z,0.00
2018-09-09T00:10:34.118Z,0.00
2018-09-09T00:11:34.111Z,0.00
2018-09-09T00:12:34.091Z,0.00
2018-09-09T00:13:34.091Z,0.00
2018-09-09T00:14:34.061Z,0.00
2018-09-09T00:15:34.042Z,0.00
2018-09-09T00:16:34.029Z,0.00
2018-09-09T00:17:34.015Z,0.00
2018-09-09T00:18:34.015Z,0.00
2018-09-09T00:19:34.001Z,0.00
2018-09-09T00:20:33.970Z,0.00
2018-09-09T00:21:33.952Z,0.00
2018-09-09T00:22:33.938Z,0.00
2018-09-09T00:23:33.922Z,0.00
2018-09-09T00:24:33.919Z,0.00
2018-09-09T00:25:33.893Z,0.00
2018-09-09T00:26:33.890Z,0.00
2018-09-09T00:27:33.859Z,0.00
2018-09-09T00:28:33.845Z,0.00
2018-09-09T00:29:33.825Z,0.00
2018-09-09T00:30:33.829Z,0.00
2018-09-09T00:31:33.800Z,0.00
2018-09-09T00:32:33.784Z,0.00
2018-09-09T00:33:33.768Z,0.00
2018-09-09T00:34:33.752Z,0.00
2018-09-09T00:35:33.749Z,0.00
2018-09-09T00:36:33.713Z,0.00
2018-09-09T00:37:33.698Z,0.00
2018-09-09T00:38:33.687Z,0.00
2018-09-09T00:39:33.673Z,0.00
2018-09-09T00:40:33.656Z,0.00
2018-09-09T00:41:33.656Z,0.00
2018-09-09T00:42:33.639Z,0.00
2018-09-09T00:43:33.606Z,0.00
2018-09-09T00:44:33.593Z,0.00
2018-09-09T00:45:33.578Z,0.00
2018-09-09T00:46:33.570Z,0.00
2018-09-09T00:47:33.541Z,0.00
2018-09-09T00:48:33.527Z,0.00
2018-09-09T00:49:33.516Z,0.00
2018-09-09T00:50:33.503Z,0.00
2018-09-09T00:51:33.497Z,0.00
2018-09-09T00:52:33.468Z,0.00
2018-09-09T00:53:33.454Z,0.00
2018-09-09T00:54:33.438Z,0.00
2018-09-09T00:55:33.424Z,0.00
2018-09-09T00:56:33.407Z,0.00
2018-09-09T00:57:33.404Z,0.00
2018-09-09T00:58:33.375Z,0.00
2018-09-09T00:59:33.365Z,0.00
2018-09-09T01:00:33.343Z,0.00
2018-09-09T01:01:33.328Z,0.00
2018-09-09T01:02:33.309Z,0.00
2018-09-09T01:03:33.307Z,0.00
2018-09-09T01:04:33.281Z,0.00
2018-09-09T01:05:33.266Z,0.00
2018-09-09T01:06:33.252Z,0.00
2018-09-09T01:07:33.235Z,0.00
2018-09-09T01:08:33.229Z,0.00
2018-09-09T01:09:33.200Z,0.00
2018-09-09T01:10:33.189Z,0.00
2018-09-09T01:11:33.169Z,0.00
2018-09-09T01:12:33.154Z,0.00
2018-09-09T01:13:33.156Z,0.00
2018-09-09T01:14:33.130Z,0.00
2018-09-09T01:15:33.111Z,0.00
2018-09-09T01:16:33.094Z,0.00
2018-09-09T01:17:33.085Z,0.00
2018-09-09T01:18:33.085Z,0.00
2018-09-09T01:19:33.053Z,0.00
2018-09-09T01:20:33.037Z,0.00
2018-09-09T01:21:33.022Z,0.00
2018-09-09T01:22:33.007Z,0.00
2018-09-09T01:23:33.004Z,0.00
2018-09-09T01:24:32.970Z,0.00
2018-09-09T01:25:32.953Z,0.00
2018-09-09T01:26:32.941Z,0.00
2018-09-09T01:27:32.925Z,0.00
2018-09-09T01:28:32.907Z,0.00
2018-09-09T01:29:53.906Z,0.00
2018-09-09T01:30:32.874Z,0.00
2018-09-09T01:31:32.856Z,0.00
2018-09-09T01:32:32.838Z,0.00
2018-09-09T01:33:32.833Z,0.00
2018-09-09T01:34:32.848Z,0.00
2018-09-09T01:35:32.794Z,0.00
2018-09-09T01:36:32.781Z,0.00
2018-09-09T01:37:32.762Z,0.00
2018-09-09T01:38:32.751Z,0.00
2018-09-09T01:39:32.729Z,0.00
2018-09-09T01:40:32.732Z,0.00
2018-09-09T01:41:32.702Z,0.00
2018-09-09T01:42:32.685Z,0.00
2018-09-09T01:43:32.669Z,0.00
2018-09-09T01:44:32.654Z,0.00
2018-09-09T01:45:32.660Z,0.00
2018-09-09T01:46:32.618Z,0.00
2018-09-09T01:47:32.603Z,0.00
2018-09-09T01:48:32.590Z,0.00
2018-09-09T01:49:32.575Z,0.00
2018-09-09T01:50:32.558Z,0.00
2018-09-09T01:51:32.556Z,0.00
2018-09-09T01:52:32.527Z,0.00
2018-09-09T01:53:32.511Z,0.00
2018-09-09T01:54:32.494Z,0.00
2018-09-09T01:55:32.482Z,0.00
2018-09-09T01:56:32.476Z,0.00
2018-09-09T01:57:32.447Z,0.00
2018-09-09T01:58:32.430Z,0.00
2018-09-09T01:59:32.414Z,0.00
2018-09-09T02:00:32.398Z,0.00
2018-09-09T02:01:32.405Z,0.00
2018-09-09T02:02:32.370Z,0.00
2018-09-09T02:03:32.350Z,0.00
2018-09-09T02:04:32.334Z,0.00
2018-09-09T02:05:32.323Z,0.00
2018-09-09T02:06:32.309Z,0.00
2018-09-09T02:07:32.308Z,0.00
2018-09-09T02:08:32.274Z,0.00
2018-09-09T02:09:32.259Z,0.00
2018-09-09T02:10:32.243Z,0.00
2018-09-09T02:11:32.246Z,0.00
2018-09-09T02:12:32.240Z,0.00
2018-09-09T02:13:32.198Z,0.00
2018-09-09T02:14:32.182Z,0.00
2018-09-09T02:15:32.162Z,0.00
2018-09-09T02:16:32.167Z,0.00
2018-09-09T02:17:32.188Z,0.00
2018-09-09T02:18:32.134Z,0.00
2018-09-09T02:19:32.101Z,0.00
2018-09-09T02:20:32.085Z,0.00
2018-09-09T02:21:32.072Z,0.00
2018-09-09T02:22:32.056Z,0.00
2018-09-09T02:23:32.056Z,0.00
2018-09-09T02:24:32.024Z,0.00
2018-09-09T02:25:32.014Z,0.00
2018-09-09T02:26:31.989Z,0.00
2018-09-09T02:27:31.977Z,0.00
2018-09-09T02:28:31.973Z,0.00
2018-09-09T02:29:31.944Z,0.00
2018-09-09T02:30:31.927Z,0.00
2018-09-09T02:31:31.912Z,0.00
2018-09-09T02:32:31.901Z,0.00
2018-09-09T02:33:31.894Z,0.00
2018-09-09T02:34:31.875Z,0.00
2018-09-09T02:35:31.847Z,0.00
2018-09-09T02:36:31.847Z,0.00
2018-09-09T02:37:31.814Z,0.00
2018-09-09T02:38:31.808Z,0.00
2018-09-09T02:39:31.788Z,0.00
2018-09-09T02:40:31.777Z,0.00
2018-09-09T02:41:31.753Z,0.00
2018-09-09T02:42:31.748Z,0.00
2018-09-09T02:43:31.716Z,0.00
2018-09-09T02:44:31.702Z,0.00
2018-09-09T02:45:31.705Z,0.00
2018-09-09T02:46:31.672Z,0.00
2018-09-09T02:47:31.657Z,0.00
2018-09-09T02:48:31.641Z,0.00
2018-09-09T02:49:31.625Z,0.00
2018-09-09T02:50:31.624Z,0.00
2018-09-09T02:51:31.594Z,0.00
2018-09-09T02:52:31.576Z,0.00
2018-09-09T02:53:31.557Z,0.00
2018-09-09T02:54:31.548Z,0.00
2018-09-09T02:55:31.528Z,0.00
2018-09-09T02:56:31.531Z,0.00
2018-09-09T02:57:31.495Z,0.00
2018-09-09T02:58:31.483Z,0.00
2018-09-09T02:59:31.463Z,0.00
2018-09-09T03:00:31.451Z,0.00
2018-09-09T03:01:31.447Z,0.00
2018-09-09T03:02:31.432Z,0.00
2018-09-09T03:03:31.399Z,0.00
2018-09-09T03:04:31.383Z,0.00
2018-09-09T03:05:31.361Z,0.00
2018-09-09T03:06:31.351Z,0.00
2018-09-09T03:07:31.329Z,0.00
2018-09-09T03:08:31.329Z,0.00
2018-09-09T03:09:31.300Z,0.00
2018-09-09T03:10:31.304Z,0.00
2018-09-09T03:11:31.267Z,0.00
2018-09-09T03:12:31.252Z,0.00
2018-09-09T03:13:31.238Z,0.00
2018-09-09T03:14:31.220Z,0.00
2018-09-09T03:15:31.207Z,0.00
2018-09-09T03:16:31.205Z,0.00
2018-09-09T03:17:31.175Z,0.00
2018-09-09T03:18:31.173Z,0.00
2018-09-09T03:19:31.140Z,0.00
2018-09-09T03:20:31.124Z,0.00
2018-09-09T03:21:31.108Z,0.00
2018-09-09T03:22:31.093Z,0.00
2018-09-09T03:23:31.097Z,0.00
2018-09-09T03:24:31.060Z,0.00
2018-09-09T03:25:31.045Z,0.00
2018-09-09T03:26:31.044Z,0.00
2018-09-09T03:27:31.012Z,0.00
2018-09-09T03:28:31.031Z,0.00
2018-09-09T03:29:30.977Z,0.00
2018-09-09T03:30:30.968Z,0.00
2018-09-09T03:31:30.947Z,0.00
2018-09-09T03:32:30.932Z,0.00
2018-09-09T03:33:30.925Z,0.00
2018-09-09T03:34:30.927Z,0.00
2018-09-09T03:35:30.898Z,0.00
2018-09-09T03:36:30.861Z,0.00
2018-09-09T03:37:30.845Z,0.00
2018-09-09T03:38:30.832Z,0.00
2018-09-09T03:39:30.833Z,0.00
2018-09-09T03:40:30.800Z,0.00
2018-09-09T03:41:30.789Z,0.00
2018-09-09T03:42:30.771Z,0.00
2018-09-09T03:43:30.757Z,0.00
2018-09-09T03:44:30.756Z,0.00
2018-09-09T03:45:30.722Z,0.00
2018-09-09T03:46:30.724Z,0.00
2018-09-09T03:47:30.691Z,0.00
2018-09-09T03:48:30.675Z,0.00
2018-09-09T03:49:30.660Z,0.00
2018-09-09T03:50:30.639Z,0.00
2018-09-09T03:51:30.623Z,0.00
2018-09-09T03:52:51.620Z,0.00
2018-09-09T03:53:30.591Z,0.00
2018-09-09T03:54:30.575Z,0.00
2018-09-09T03:55:30.559Z,0.00
2018-09-09T03:56:30.559Z,0.00
2018-09-09T03:57:30.541Z,0.00
2018-09-09T03:58:30.508Z,0.00
2018-09-09T03:59:30.509Z,0.00
2018-09-09T04:00:30.479Z,0.00
2018-09-09T04:01:30.465Z,0.00
2018-09-09T04:02:30.449Z,0.00
2018-09-09T04:03:30.431Z,0.00
2018-09-09T04:04:30.414Z,0.00
2018-09-09T04:05:30.419Z,0.00
2018-09-09T04:06:30.382Z,0.00
2018-09-09T04:07:30.368Z,0.00
2018-09-09T04:08:30.349Z,0.00
2018-09-09T04:09:30.335Z,0.00
2018-09-09T04:10:30.323Z,0.00
2018-09-09T04:11:30.318Z,0.00
2018-09-09T04:12:30.308Z,0.00
2018-09-09T04:13:30.272Z,0.00
2018-09-09T04:14:30.253Z,0.00
2018-09-09T04:15:30.241Z,0.00
2018-09-09T04:16:30.225Z,0.00
2018-09-09T04:17:30.205Z,0.00
2018-09-09T04:18:30.204Z,0.00
2018-09-09T04:19:30.173Z,0.00
2018-09-09T04:20:30.160Z,0.00
2018-09-09T04:21:30.149Z,0.00
2018-09-09T04:22:30.135Z,0.00
2018-09-09T04:23:30.182Z,0.00
2018-09-09T04:24:30.097Z,0.00
2018-09-09T04:25:30.088Z,0.00
2018-09-09T04:26:30.068Z,0.00
2018-09-09T04:27:30.055Z,0.00
2018-09-09T04:28:30.055Z,0.00
2018-09-09T04:29:30.037Z,0.00
2018-09-09T04:30:30.008Z,0.00
2018-09-09T04:31:29.991Z,0.00
2018-09-09T04:32:29.991Z,0.00
2018-09-09T04:33:29.956Z,0.00
2018-09-09T04:34:29.942Z,0.00
2018-09-09T04:35:29.926Z,0.00
2018-09-09T04:36:29.910Z,0.00
2018-09-09T04:37:29.890Z,0.00
2018-09-09T04:38:29.891Z,0.00
2018-09-09T04:39:29.886Z,0.00
2018-09-09T04:40:29.845Z,0.00
2018-09-09T04:41:29.833Z,0.00
2018-09-09T04:42:29.813Z,0.00
2018-09-09T04:43:30.103Z,0.00
2018-09-09T04:44:29.801Z,0.00
2018-09-09T04:45:29.773Z,4.00
2018-09-09T04:46:29.845Z,4.00
2018-09-09T04:47:29.737Z,4.00
2018-09-09T04:48:29.721Z,0.00
2018-09-09T04:49:29.723Z,0.00
2018-09-09T04:50:29.688Z,4.00
2018-09-09T04:51:29.672Z,4.00
2018-09-09T04:52:29.703Z,4.00
2018-09-09T04:53:29.645Z,4.00
2018-09-09T04:54:29.647Z,4.00
2018-09-09T04:55:29.608Z,8.00
2018-09-09T04:56:29.590Z,8.00
2018-09-09T04:57:29.573Z,8.00
2018-09-09T04:58:29.559Z,8.00
2018-09-09T04:59:29.550Z,12.00
2018-09-09T05:00:29.551Z,12.00
2018-09-09T05:01:29.512Z,12.00
2018-09-09T05:02:29.497Z,12.00
2018-09-09T05:03:29.478Z,16.00
2018-09-09T05:04:29.460Z,16.00
2018-09-09T05:05:29.446Z,12.00
2018-09-09T05:06:29.441Z,12.00
2018-09-09T05:07:29.414Z,16.00
2018-09-09T05:08:29.399Z,16.00
2018-09-09T05:09:29.384Z,16.00
2018-09-09T05:10:29.367Z,20.00
2018-09-09T05:11:29.366Z,16.00
2018-09-09T05:12:29.332Z,20.00
2018-09-09T05:13:29.319Z,20.00
2018-09-09T05:14:29.301Z,20.00
2018-09-09T05:15:29.284Z,20.00
2018-09-09T05:16:29.285Z,20.00
2018-09-09T05:17:29.249Z,24.00
2018-09-09T05:18:29.242Z,20.00
2018-09-09T05:19:29.221Z,20.00
2018-09-09T05:20:29.203Z,20.00
2018-09-09T05:21:29.189Z,24.00
2018-09-09T05:22:29.191Z,20.00
2018-09-09T05:23:29.168Z,20.00
2018-09-09T05:24:29.140Z,24.00
2018-09-09T05:25:29.120Z,24.00
2018-09-09T05:26:29.108Z,24.00
2018-09-09T05:27:29.110Z,32.00
2018-09-09T05:28:29.076Z,32.00
2018-09-09T05:29:29.062Z,36.00
2018-09-09T05:30:29.052Z,40.00
2018-09-09T05:31:29.031Z,40.00
2018-09-09T05:32:29.018Z,48.00
2018-09-09T05:33:29.011Z,48.00
2018-09-09T05:34:28.986Z,48.00
2018-09-09T05:35:28.966Z,56.00
2018-09-09T05:36:28.950Z,60.00
2018-09-09T05:37:28.932Z,68.00
2018-09-09T05:38:28.934Z,76.00
2018-09-09T05:39:28.900Z,92.00
2018-09-09T05:40:28.886Z,96.00
2018-09-09T05:41:28.865Z,108.00
2018-09-09T05:42:28.928Z,116.00
2018-09-09T05:43:28.852Z,112.00
2018-09-09T05:44:28.866Z,108.00
2018-09-09T05:45:28.804Z,104.00
2018-09-09T05:46:28.790Z,104.00
2018-09-09T05:47:28.772Z,112.00
2018-09-09T05:48:28.755Z,120.00
2018-09-09T05:49:28.758Z,128.00
2018-09-09T05:50:28.724Z,140.00
2018-09-09T05:51:28.710Z,144.00
2018-09-09T05:52:28.702Z,144.00
2018-09-09T05:53:28.679Z,144.00
2018-09-09T05:54:28.663Z,144.00
2018-09-09T05:55:28.663Z,144.00
2018-09-09T05:56:28.628Z,144.00
2018-09-09T05:57:28.636Z,156.00
2018-09-09T05:58:28.613Z,164.00
2018-09-09T05:59:28.580Z,172.00
2018-09-09T06:00:28.577Z,176.00
2018-09-09T06:01:28.548Z,172.00
2018-09-09T06:02:28.528Z,172.00
2018-09-09T06:03:28.513Z,168.00
2018-09-09T06:04:28.499Z,164.00
2018-09-09T06:05:28.501Z,168.00
2018-09-09T06:06:28.467Z,160.00
2018-09-09T06:07:28.450Z,156.00
2018-09-09T06:08:28.436Z,148.00
2018-09-09T06:09:28.420Z,136.00
2018-09-09T06:10:28.419Z,128.00
2018-09-09T06:11:28.440Z,124.00
2018-09-09T06:12:28.371Z,128.00
2018-09-09T06:13:28.359Z,132.00
2018-09-09T06:14:28.342Z,144.00
2018-09-09T06:15:28.339Z,156.00
2018-09-09T06:16:28.313Z,172.00
2018-09-09T06:17:28.293Z,188.00
2018-09-09T06:18:28.280Z,204.00
2018-09-09T06:19:28.261Z,224.00
2018-09-09T06:20:28.264Z,240.00
2018-09-09T06:21:28.232Z,252.00
2018-09-09T06:22:28.213Z,272.00
2018-09-09T06:23:28.205Z,292.00
2018-09-09T06:24:28.184Z,312.00
2018-09-09T06:25:28.181Z,320.00
2018-09-09T06:26:28.149Z,320.00
2018-09-09T06:27:28.143Z,312.00
2018-09-09T06:28:28.118Z,308.00
2018-09-09T06:29:28.099Z,304.00
2018-09-09T06:30:28.099Z,304.00
2018-09-09T06:31:28.066Z,312.00
2018-09-09T06:32:28.051Z,312.00
2018-09-09T06:33:28.054Z,308.00
2018-09-09T06:34:28.025Z,304.00
2018-09-09T06:35:28.023Z,300.00
2018-09-09T06:36:27.991Z,296.00
2018-09-09T06:37:27.973Z,296.00
2018-09-09T06:38:27.960Z,288.00
2018-09-09T06:39:27.942Z,280.00
2018-09-09T06:40:27.948Z,276.00
2018-09-09T06:41:27.911Z,268.00
2018-09-09T06:42:27.897Z,268.00
2018-09-09T06:43:27.881Z,264.00
2018-09-09T06:44:27.867Z,256.00
2018-09-09T06:45:27.884Z,244.00
2018-09-09T06:46:27.876Z,232.00
2018-09-09T06:47:27.819Z,228.00
2018-09-09T06:48:27.810Z,224.00
2018-09-09T06:49:27.785Z,228.00
2018-09-09T06:50:27.773Z,228.00
2018-09-09T06:51:27.771Z,236.00
2018-09-09T06:52:27.738Z,228.00
2018-09-09T06:53:27.724Z,232.00
2018-09-09T06:54:27.709Z,228.00
2018-09-09T06:55:27.730Z,228.00
2018-09-09T06:56:27.696Z,232.00
2018-09-09T06:57:27.664Z,244.00
2018-09-09T06:58:27.651Z,260.00
2018-09-09T06:59:27.636Z,272.00
2018-09-09T07:00:27.616Z,280.00
2018-09-09T07:01:27.603Z,296.00
2018-09-09T07:02:27.715Z,308.00
2018-09-09T07:03:27.571Z,324.00
2018-09-09T07:04:27.559Z,340.00
2018-09-09T07:05:27.543Z,360.00
2018-09-09T07:06:27.525Z,376.00
2018-09-09T07:07:27.528Z,404.00
2018-09-09T07:08:27.492Z,428.00
2018-09-09T07:09:27.480Z,444.00
2018-09-09T07:10:27.472Z,464.00
2018-09-09T07:11:27.649Z,484.00
2018-09-09T07:12:27.454Z,500.00
2018-09-09T07:13:27.421Z,516.00
2018-09-09T07:14:27.403Z,536.00
2018-09-09T07:15:27.387Z,552.00
2018-09-09T07:16:27.375Z,568.00
2018-09-09T07:17:27.376Z,576.00
2018-09-09T07:18:27.339Z,588.00
2018-09-09T07:19:27.333Z,596.00
2018-09-09T07:20:27.312Z,600.00
2018-09-09T07:21:27.300Z,616.00
2018-09-09T07:22:27.351Z,644.00
2018-09-09T07:23:27.267Z,660.00
2018-09-09T07:24:27.252Z,644.00
2018-09-09T07:25:27.239Z,628.00
2018-09-09T07:26:27.224Z,632.00
2018-09-09T07:27:27.223Z,652.00
2018-09-09T07:28:27.235Z,664.00
2018-09-09T07:29:27.195Z,684.00
2018-09-09T07:30:27.165Z,700.00
2018-09-09T07:31:27.150Z,712.00
2018-09-09T07:32:27.153Z,708.00
2018-09-09T07:33:27.136Z,708.00
2018-09-09T07:34:27.106Z,684.00
2018-09-09T07:35:27.093Z,664.00
2018-09-09T07:36:27.075Z,652.00
2018-09-09T07:37:27.114Z,668.00
2018-09-09T07:38:27.046Z,724.00
2018-09-09T07:39:27.049Z,772.00
2018-09-09T07:40:27.017Z,796.00
2018-09-09T07:41:27.005Z,816.00
2018-09-09T07:42:26.991Z,832.00
2018-09-09T07:43:27.017Z,852.00
2018-09-09T07:44:26.962Z,860.00
2018-09-09T07:45:26.946Z,868.00
2018-09-09T07:46:26.943Z,892.00
2018-09-09T07:47:26.920Z,924.00
2018-09-09T07:48:26.901Z,952.00
2018-09-09T07:49:26.900Z,992.00
2018-09-09T07:50:26.872Z,1044.00
2018-09-09T07:51:26.864Z,1088.00
2018-09-09T07:52:26.845Z,1108.00
2018-09-09T07:53:26.831Z,1092.00
2018-09-09T07:54:26.817Z,1088.00
2018-09-09T07:55:26.814Z,1052.00
2018-09-09T07:56:26.787Z,1008.00
2018-09-09T07:57:26.773Z,968.00
2018-09-09T07:58:26.758Z,956.00
2018-09-09T07:59:26.744Z,984.00
2018-09-09T08:00:26.809Z,1016.00
2018-09-09T08:01:26.716Z,1064.00
2018-09-09T08:02:26.702Z,1084.00
2018-09-09T08:03:26.685Z,1084.00
2018-09-09T08:04:26.672Z,1080.00
2018-09-09T08:05:26.672Z,1084.00
2018-09-09T08:06:26.643Z,1080.00
2018-09-09T08:07:26.643Z,1088.00
2018-09-09T08:08:26.615Z,1128.00
2018-09-09T08:09:26.601Z,1156.00
2018-09-09T08:10:26.605Z,1152.00
2018-09-09T08:11:26.576Z,1156.00
2018-09-09T08:12:26.586Z,1180.00
2018-09-09T08:13:26.541Z,1164.00
2018-09-09T08:14:26.531Z,1180.00
2018-09-09T08:15:26.535Z,1184.00
2018-09-09T08:16:26.501Z,1152.00
2018-09-09T08:17:26.491Z,1124.00
2018-09-09T08:18:26.487Z,1108.00
2018-09-09T08:19:26.458Z,1080.00
2018-09-09T08:20:26.496Z,1100.00
2018-09-09T08:21:26.435Z,1152.00
2018-09-09T08:22:26.419Z,1204.00
2018-09-09T08:23:26.449Z,1208.00
2018-09-09T08:24:26.394Z,1236.00
2018-09-09T08:25:26.382Z,1256.00
2018-09-09T08:26:26.379Z,1268.00
2018-09-09T08:27:26.393Z,1244.00
2018-09-09T08:28:26.339Z,1256.00
2018-09-09T08:29:26.346Z,1276.00
2018-09-09T08:30:26.317Z,1244.00
2018-09-09T08:31:26.304Z,1260.00
2018-09-09T08:32:26.306Z,1268.00
2018-09-09T08:33:26.267Z,1268.00
2018-09-09T08:34:26.259Z,1256.00
2018-09-09T08:35:26.243Z,1280.00
2018-09-09T08:36:26.225Z,1252.00
2018-09-09T08:37:26.218Z,1216.00
2018-09-09T08:38:26.218Z,1236.00
2018-09-09T08:39:26.857Z,1248.00
2018-09-09T08:40:26.174Z,1252.00
2018-09-09T08:41:26.160Z,1228.00
2018-09-09T08:42:26.897Z,1356.00
2018-09-09T08:43:26.148Z,1380.00
2018-09-09T08:44:26.117Z,1400.00
2018-09-09T08:45:26.184Z,1500.00
2018-09-09T08:46:26.100Z,1500.00
2018-09-09T08:47:26.093Z,1576.00
2018-09-09T08:48:26.067Z,1560.00
2018-09-09T08:49:26.048Z,1600.00
2018-09-09T08:50:26.035Z,1620.00
2018-09-09T08:51:26.035Z,1644.00
2018-09-09T08:52:26.013Z,1624.00
2018-09-09T08:53:25.995Z,1632.00
2018-09-09T08:54:26.005Z,1708.00
2018-09-09T08:55:25.973Z,1728.00
2018-09-09T08:56:25.959Z,1680.00
2018-09-09T08:57:25.969Z,1656.00
2018-09-09T08:58:25.932Z,1564.00
2018-09-09T08:59:25.918Z,1308.00
2018-09-09T09:00:25.919Z,1180.00
2018-09-09T09:01:25.898Z,1196.00
2018-09-09T09:02:25.897Z,1224.00
2018-09-09T09:03:25.867Z,1236.00
2018-09-09T09:04:25.856Z,1212.00
2018-09-09T09:05:25.855Z,1816.00
2018-09-09T09:06:25.829Z,1744.00
2018-09-09T09:07:25.868Z,1796.00
2018-09-09T09:08:25.801Z,1420.00
2018-09-09T09:09:25.791Z,8264.00
2018-09-09T09:10:25.788Z,10104.00
2018-09-09T09:11:25.766Z,11928.00
2018-09-09T09:12:25.749Z,10720.00
2018-09-09T09:13:25.737Z,11968.00
2018-09-09T09:14:25.724Z,12776.00
2018-09-09T09:15:25.722Z,5488.00
2018-09-09T09:16:25.695Z,12776.00
2018-09-09T09:17:25.700Z,3896.00
2018-09-09T09:18:25.719Z,6016.00
2018-09-09T09:19:25.663Z,8600.00
2018-09-09T09:20:25.670Z,10496.00
2018-09-09T09:21:25.658Z,3660.00
2018-09-09T09:22:25.645Z,5460.00
2018-09-09T09:23:25.616Z,8516.00
2018-09-09T09:24:25.604Z,9304.00
2018-09-09T09:25:25.599Z,6372.00
2018-09-09T09:26:25.584Z,14092.00
2018-09-09T09:27:25.593Z,11160.00
2018-09-09T09:28:25.580Z,9592.00
2018-09-09T09:29:25.561Z,5100.00
2018-09-09T09:30:25.545Z,7352.00
2018-09-09T09:31:25.531Z,11072.00
2018-09-09T09:32:25.526Z,8216.00
2018-09-09T09:33:25.533Z,9192.00
2018-09-09T09:34:25.502Z,14336.00
2018-09-09T09:35:25.494Z,12548.00
2018-09-09T09:36:25.505Z,8444.00
2018-09-09T09:37:25.489Z,12256.00
2018-09-09T09:38:25.482Z,15104.00
2018-09-09T09:39:25.477Z,12964.00
2018-09-09T09:40:25.454Z,6728.00
2018-09-09T09:41:25.441Z,12276.00
2018-09-09T09:42:25.440Z,6256.00
2018-09-09T09:43:25.440Z,3972.00
2018-09-09T09:44:25.430Z,8580.00
2018-09-09T09:45:25.413Z,14320.00
2018-09-09T09:46:25.403Z,15392.00
2018-09-09T09:47:25.393Z,12948.00
2018-09-09T09:48:25.401Z,10524.00
2018-09-09T09:49:25.376Z,10724.00
2018-09-09T09:50:25.374Z,4224.00
2018-09-09T09:51:25.362Z,7660.00
2018-09-09T09:52:25.357Z,13884.00
2018-09-09T09:53:25.399Z,13528.00
2018-09-09T09:54:46.356Z,14004.00
2018-09-09T09:55:25.344Z,13840.00
2018-09-09T09:56:25.332Z,13816.00
2018-09-09T09:57:25.322Z,13888.00
2018-09-09T09:58:25.312Z,13944.00
2018-09-09T09:59:25.326Z,13752.00
2018-09-09T10:00:25.303Z,13792.00
2018-09-09T10:01:25.310Z,13796.00
2018-09-09T10:02:25.287Z,13820.00
2018-09-09T10:03:25.317Z,13868.00
2018-09-09T10:04:25.271Z,12084.00
2018-09-09T10:05:25.338Z,10328.00
2018-09-09T10:06:25.274Z,13864.00
2018-09-09T10:07:25.251Z,13952.00
2018-09-09T10:08:25.245Z,14116.00
2018-09-09T10:09:25.242Z,14144.00
2018-09-09T10:10:25.258Z,13800.00
2018-09-09T10:11:25.246Z,14392.00
2018-09-09T10:12:25.458Z,9468.00
2018-09-09T10:13:25.216Z,14224.00
2018-09-09T10:14:25.214Z,11472.00
2018-09-09T10:15:25.204Z,12964.00
2018-09-09T10:16:25.200Z,12700.00
2018-09-09T10:17:25.195Z,12316.00
2018-09-09T10:18:25.207Z,13752.00
2018-09-09T10:19:25.183Z,14304.00
2018-09-09T10:20:25.175Z,14176.00
2018-09-09T10:21:25.191Z,9744.00
2018-09-09T10:22:25.168Z,10932.00
2018-09-09T10:23:25.159Z,11960.00
2018-09-09T10:24:25.153Z,8772.00
2018-09-09T10:25:25.146Z,11208.00
2018-09-09T10:26:25.156Z,13120.00
2018-09-09T10:27:25.138Z,13664.00
2018-09-09T10:28:25.132Z,6224.00
2018-09-09T10:29:25.132Z,5000.00
2018-09-09T10:30:25.119Z,5152.00
2018-09-09T10:31:25.169Z,5944.00
2018-09-09T10:32:25.106Z,4048.00
2018-09-09T10:33:25.103Z,5140.00
2018-09-09T10:34:25.097Z,7508.00
2018-09-09T10:35:25.087Z,4692.00
2018-09-09T10:36:25.097Z,5944.00
2018-09-09T10:37:25.075Z,5228.00
2018-09-09T10:38:25.088Z,3360.00
2018-09-09T10:39:25.061Z,3668.00
2018-09-09T10:40:25.055Z,3720.00
2018-09-09T10:41:25.052Z,4184.00
2018-09-09T10:42:25.062Z,3412.00
2018-09-09T10:43:25.033Z,3372.00
2018-09-09T10:44:25.030Z,3788.00
2018-09-09T10:45:25.017Z,3696.00
2018-09-09T10:46:25.157Z,3780.00
2018-09-09T10:47:25.005Z,4752.00
2018-09-09T10:48:25.010Z,4104.00
2018-09-09T10:49:24.988Z,4748.00
2018-09-09T10:50:25.001Z,4648.00
2018-09-09T10:51:24.969Z,3856.00
2018-09-09T10:52:24.963Z,8584.00
2018-09-09T10:53:24.976Z,5336.00
2018-09-09T10:54:24.944Z,7752.00
2018-09-09T10:55:24.953Z,8896.00
2018-09-09T10:56:24.931Z,8804.00
2018-09-09T10:57:24.924Z,11032.00
2018-09-09T10:58:24.913Z,5492.00
2018-09-09T10:59:24.908Z,7800.00
2018-09-09T11:00:24.897Z,6676.00
2018-09-09T11:01:24.907Z,8876.00
2018-09-09T11:02:24.904Z,6504.00
2018-09-09T11:03:24.875Z,6776.00
2018-09-09T11:04:24.872Z,7332.00
2018-09-09T11:05:24.865Z,7924.00
2018-09-09T11:06:24.859Z,6156.00
2018-09-09T11:07:24.862Z,5136.00
2018-09-09T11:08:24.844Z,11348.00
2018-09-09T11:09:24.841Z,7284.00
2018-09-09T11:10:24.827Z,8776.00
2018-09-09T11:11:24.843Z,7952.00
2018-09-09T11:12:24.851Z,3448.00
2018-09-09T11:13:24.812Z,7012.00
2018-09-09T11:14:24.805Z,6904.00
2018-09-09T11:15:24.800Z,5296.00
2018-09-09T11:16:24.789Z,5176.00
2018-09-09T11:17:24.806Z,6480.00
2018-09-09T11:18:24.776Z,2868.00
2018-09-09T11:19:24.781Z,4388.00
2018-09-09T11:20:24.764Z,3496.00
2018-09-09T11:21:24.757Z,3304.00
2018-09-09T11:22:24.767Z,4084.00
2018-09-09T11:23:24.757Z,2792.00
2018-09-09T11:24:24.778Z,3772.00
2018-09-09T11:25:24.741Z,7656.00
2018-09-09T11:26:24.737Z,3024.00
2018-09-09T11:27:24.732Z,6164.00
2018-09-09T11:28:24.710Z,8020.00
2018-09-09T11:29:24.705Z,5060.00
2018-09-09T11:30:24.693Z,2984.00
2018-09-09T11:31:24.688Z,3656.00
2018-09-09T11:32:24.700Z,3088.00
2018-09-09T11:33:24.672Z,4948.00
2018-09-09T11:34:24.681Z,3988.00
2018-09-09T11:35:24.654Z,2620.00
2018-09-09T11:36:24.677Z,2236.00
2018-09-09T11:37:24.647Z,2856.00
2018-09-09T11:38:24.650Z,2232.00
2018-09-09T11:39:24.625Z,2436.00
2018-09-09T11:40:24.616Z,5460.00
2018-09-09T11:41:24.611Z,3336.00
2018-09-09T11:42:24.605Z,2504.00
2018-09-09T11:43:24.612Z,2332.00
2018-09-09T11:44:24.589Z,2392.00
2018-09-09T11:45:24.577Z,3164.00
2018-09-09T11:46:24.571Z,2324.00
2018-09-09T11:47:24.577Z,2672.00
2018-09-09T11:48:24.569Z,2412.00
2018-09-09T11:49:24.547Z,2372.00
2018-09-09T11:50:24.536Z,2060.00
2018-09-09T11:51:24.529Z,1988.00
2018-09-09T11:52:24.518Z,2252.00
2018-09-09T11:53:24.513Z,2000.00
2018-09-09T11:54:24.524Z,1460.00
2018-09-09T11:55:24.496Z,2092.00
2018-09-09T11:56:24.483Z,2504.00
2018-09-09T11:57:24.478Z,8844.00
2018-09-09T11:58:24.467Z,6116.00
2018-09-09T11:59:24.491Z,7044.00
2018-09-09T12:00:24.449Z,3760.00
2018-09-09T12:01:24.444Z,3880.00
2018-09-09T12:02:24.437Z,2152.00
2018-09-09T12:03:24.430Z,1736.00
2018-09-09T12:04:24.433Z,1748.00
2018-09-09T12:05:24.412Z,1660.00
2018-09-09T12:06:24.405Z,1676.00
2018-09-09T12:07:24.412Z,1504.00
2018-09-09T12:08:24.391Z,1252.00
2018-09-09T12:09:24.378Z,1276.00
2018-09-09T12:10:24.396Z,1272.00
2018-09-09T12:11:24.370Z,1256.00
2018-09-09T12:12:24.359Z,1204.00
2018-09-09T12:13:24.349Z,1180.00
2018-09-09T12:14:24.342Z,1180.00
2018-09-09T12:15:24.331Z,1136.00
2018-09-09T12:16:24.340Z,1048.00
2018-09-09T12:17:24.317Z,972.00
2018-09-09T12:18:24.308Z,888.00
2018-09-09T12:19:24.298Z,920.00
2018-09-09T12:20:24.292Z,1020.00
2018-09-09T12:21:24.295Z,1236.00
2018-09-09T12:22:24.273Z,1456.00
2018-09-09T12:23:24.264Z,1592.00
2018-09-09T12:24:24.250Z,1704.00
2018-09-09T12:25:24.257Z,1808.00
2018-09-09T12:26:24.231Z,1840.00
2018-09-09T12:27:24.238Z,1876.00
2018-09-09T12:28:24.212Z,2036.00
2018-09-09T12:29:24.202Z,2000.00
2018-09-09T12:30:24.209Z,1952.00
2018-09-09T12:31:24.187Z,2008.00
2018-09-09T12:32:24.240Z,1832.00
2018-09-09T12:33:24.180Z,1652.00
2018-09-09T12:34:24.166Z,1664.00
2018-09-09T12:35:24.148Z,1568.00
2018-09-09T12:36:24.136Z,1548.00
2018-09-09T12:37:24.125Z,1492.00